Time;durP1;ratioP1;P1;durP2;ratioP2;P2;SDS_P1;SDS_P2;PMS_P1;PMS_P2;Temp;Humidity;BMP_temperature;BMP_pressure;BME280_temperature;BME280_humidity;BME280_pressure;Samples;Min_cycle;Max_cycle;Signal;HPM_P1;HPM_P2
2022/11/05 00:11:16;;;;;;;3.63;2.63;;;11.10;65.00;;;;;;5996905;23;114015;-81
2022/11/05 00:16:44;;;;;;;3.35;2.50;;;11.10;65.10;;;;;;5994368;23;114639;-81
2022/11/05 00:19:12;;;;;;;4.53;3.25;;;11.00;65.10;;;;;;5995890;23;114779;-82
2022/11/05 00:27:10;;;;;;;4.88;3.58;;;11.00;65.10;;;;;;5994148;23;114735;-82
2022/11/05 00:29:37;;;;;;;4.93;3.15;;;11.00;65.30;;;;;;5995249;23;114180;-81
2022/11/05 00:32:04;;;;;;;4.40;3.28;;;11.00;65.30;;;;;;5995294;23;114559;-81
2022/11/05 00:34:31;;;;;;;3.85;3.13;;;11.00;65.10;;;;;;5993920;23;114858;-81
2022/11/05 00:36:58;;;;;;;4.60;3.40;;;11.00;65.00;;;;;;5995942;23;114630;-81
2022/11/05 00:39:25;;;;;;;4.95;3.70;;;11.00;65.00;;;;;;5996536;23;115000;-81
2022/11/05 00:50:09;;;;;;;5.88;4.50;;;10.90;65.10;;;;;;5996404;23;114491;-82
2022/11/05 00:52:55;;;;;;;4.80;3.95;;;11.00;65.20;;;;;;5994924;23;114365;-82
2022/11/05 00:55:39;;;;;;;5.07;4.32;;;11.00;65.10;;;;;;5994082;23;114901;-82
2022/11/05 00:58:11;;;;;;;4.30;3.67;;;11.00;64.80;;;;;;5993441;23;114586;-82
2022/11/05 01:00:40;;;;;;;5.25;3.75;;;11.00;64.80;;;;;;5994847;23;114201;-82
2022/11/05 01:03:10;;;;;;;5.22;4.10;;;11.00;64.80;;;;;;5995198;23;114390;-82
2022/11/05 01:05:39;;;;;;;4.88;3.92;;;11.10;64.80;;;;;;5992690;23;117442;-81
2022/11/05 01:08:09;;;;;;;4.15;3.70;;;11.10;64.80;;;;;;5993389;23;114581;-83
2022/11/05 01:10:43;;;;;;;5.43;4.18;;;11.10;64.40;;;;;;5995300;23;114202;-82
2022/11/05 01:13:11;;;;;;;4.22;3.63;;;11.10;64.60;;;;;;5996254;23;114482;-82
2022/11/05 01:15:39;;;;;;;4.30;3.35;;;11.10;64.20;;;;;;5993573;23;114806;-82
2022/11/05 01:18:06;;;;;;;5.00;4.10;;;11.10;64.10;;;;;;5993539;23;114779;-80
2022/11/05 01:20:33;;;;;;;6.55;4.20;;;11.10;64.10;;;;;;5994727;23;114144;-80
2022/11/05 01:23:03;;;;;;;4.93;3.70;;;11.10;64.10;;;;;;5995761;23;114433;-81
2022/11/05 01:25:38;;;;;;;5.38;3.83;;;11.00;64.10;;;;;;5994867;23;115226;-81
2022/11/05 01:28:05;;;;;;;5.95;3.42;;;11.00;64.10;;;;;;5993738;23;114557;-81
2022/11/05 01:30:32;;;;;;;5.40;4.10;;;10.90;64.00;;;;;;5994600;23;114335;-80
2022/11/05 01:32:59;;;;;;;4.45;3.40;;;10.90;64.00;;;;;;5994785;23;114275;-80
2022/11/05 01:35:28;;;;;;;4.43;3.20;;;10.90;64.00;;;;;;5994146;23;117359;-81
2022/11/05 01:37:55;;;;;;;4.75;3.28;;;10.80;63.80;;;;;;5995040;23;114569;-81
2022/11/05 01:40:24;;;;;;;3.40;2.70;;;10.80;64.00;;;;;;5995894;23;114266;-81
2022/11/05 01:42:51;;;;;;;3.25;2.65;;;10.70;63.90;;;;;;5995844;23;114456;-80
2022/11/05 01:45:23;;;;;;;3.90;3.15;;;10.70;63.70;;;;;;5993666;23;114980;-82
2022/11/05 01:48:05;;;;;;;5.00;3.25;;;10.70;63.70;;;;;;5995039;23;114776;-82
2022/11/05 01:50:54;;;;;;;4.22;3.15;;;10.70;63.80;;;;;;5994383;23;114192;-80
2022/11/05 01:53:37;;;;;;;4.07;3.00;;;10.60;64.10;;;;;;5995945;23;114293;-81
2022/11/05 01:56:06;;;;;;;4.70;2.58;;;10.70;63.90;;;;;;5970056;23;116954;-82
2022/11/05 01:58:48;;;;;;;3.25;2.35;;;10.60;64.00;;;;;;5993338;23;114634;-81
2022/11/05 02:01:15;;;;;;;4.82;2.45;;;10.60;64.00;;;;;;5994242;23;115093;-82
2022/11/05 02:03:42;;;;;;;2.83;2.10;;;10.50;63.90;;;;;;5994404;23;114477;-81
2022/11/05 02:06:09;;;;;;;3.40;2.20;;;10.50;63.70;;;;;;5993422;23;114965;-82
2022/11/05 02:08:58;;;;;;;3.30;2.13;;;10.50;63.80;;;;;;5993196;23;115024;-81
2022/11/05 02:11:25;;;;;;;3.22;2.13;;;10.60;63.40;;;;;;5995820;23;114155;-81
2022/11/05 02:13:52;;;;;;;2.80;1.90;;;10.40;63.50;;;;;;5995995;23;114539;-81
2022/11/05 02:16:51;;;;;;;3.22;2.42;;;10.50;63.50;;;;;;5993201;23;114955;-82
2022/11/05 02:19:57;;;;;;;3.47;2.20;;;10.50;63.40;;;;;;5993466;23;114789;-81
2022/11/05 02:22:36;;;;;;;;;;;10.50;63.40;;;;;;5994959;23;114307;-81
2022/11/05 02:25:34;;;;;;;2.90;2.20;;;10.30;63.70;;;;;;5994540;23;114561;-82
2022/11/05 02:28:01;;;;;;;3.42;2.40;;;10.40;63.70;;;;;;5994165;23;115152;-82
2022/11/05 02:30:33;;;;;;;2.88;2.15;;;10.30;63.80;;;;;;5993257;23;114724;-80
2022/11/05 02:33:08;;;;;;;2.80;1.98;;;10.40;63.70;;;;;;5995474;23;114079;-82
2022/11/05 02:36:07;;;;;;;3.20;1.90;;;10.30;63.50;;;;;;5994390;23;114062;-81
2022/11/05 02:38:39;;;;;;;3.20;2.10;;;10.40;63.50;;;;;;5940575;23;116240;-81
2022/11/05 02:41:09;;;;;;;3.35;2.50;;;10.30;63.50;;;;;;5993230;23;115182;-81
2022/11/05 02:43:51;;;;;;;2.90;1.98;;;10.40;63.70;;;;;;5995494;23;114188;-82
2022/11/05 02:46:29;;;;;;;2.67;2.10;;;10.40;63.70;;;;;;5994412;23;115054;-81
2022/11/05 02:49:10;;;;;;;3.50;2.60;;;10.40;63.70;;;;;;5993165;23;115415;-80
2022/11/05 02:51:56;;;;;;;3.20;2.20;;;10.40;63.90;;;;;;5993010;23;114670;-80
2022/11/05 02:54:37;;;;;;;5.50;2.45;;;10.40;63.60;;;;;;5993718;23;115454;-80
2022/11/05 02:57:04;;;;;;;3.15;2.15;;;10.40;63.50;;;;;;5993735;23;114976;-81
2022/11/05 02:59:31;;;;;;;3.92;2.20;;;10.40;63.50;;;;;;5992954;23;115704;-81
2022/11/05 03:01:58;;;;;;;3.25;2.40;;;10.40;63.40;;;;;;5992833;23;114858;-81
2022/11/05 03:04:26;;;;;;;3.67;1.95;;;10.40;63.30;;;;;;5994233;23;114455;-80
2022/11/05 03:07:02;;;;;;;3.72;2.20;;;10.40;63.50;;;;;;5994202;23;114261;-81
2022/11/05 03:09:44;;;;;;;3.58;2.38;;;10.40;63.30;;;;;;5969340;23;114983;-80
2022/11/05 03:12:17;;;;;;;3.40;2.80;;;10.50;63.20;;;;;;5994909;23;114629;-80
2022/11/05 03:14:46;;;;;;;4.32;2.88;;;10.40;63.10;;;;;;5995651;23;114361;-80
2022/11/05 03:17:42;;;;;;;3.90;2.30;;;10.40;63.60;;;;;;5994526;23;114179;-81
2022/11/05 03:20:13;;;;;;;4.07;2.72;;;10.40;63.20;;;;;;5991802;23;115350;-80
2022/11/05 03:22:57;;;;;;;3.10;2.63;;;10.40;63.40;;;;;;5993171;23;114695;-81
2022/11/05 03:25:24;;;;;;;3.00;2.33;;;10.40;63.40;;;;;;5993832;23;114559;-81
2022/11/05 03:27:54;;;;;;;3.88;2.58;;;10.40;63.30;;;;;;5994054;23;114194;-81
2022/11/05 03:30:23;;;;;;;3.40;2.33;;;10.40;63.40;;;;;;5992764;23;115345;-80
2022/11/05 03:32:58;;;;;;;3.35;2.30;;;10.40;63.40;;;;;;5969285;23;117302;-81
2022/11/05 03:35:36;;;;;;;3.47;2.38;;;10.40;63.20;;;;;;5993936;23;114172;-80
2022/11/05 03:38:07;;;;;;;3.53;2.25;;;10.40;63.60;;;;;;5994662;23;114309;-81
2022/11/05 03:40:34;;;;;;;5.50;2.55;;;10.50;63.40;;;;;;5992779;23;115175;-81
2022/11/05 03:43:02;;;;;;;3.17;2.25;;;10.50;63.50;;;;;;5992770;23;114520;-82
2022/11/05 03:45:39;;;;;;;3.42;2.42;;;10.50;63.40;;;;;;5994083;23;115063;-81
2022/11/05 03:48:06;;;;;;;4.78;2.50;;;10.50;63.40;;;;;;5970830;23;114273;-81
2022/11/05 03:50:54;;;;;;;3.65;2.83;;;10.40;63.60;;;;;;5994200;23;115527;-82
2022/11/05 03:53:25;;;;;;;3.92;2.88;;;10.40;63.50;;;;;;5994459;23;114537;-81
2022/11/05 03:55:58;;;;;;;3.88;2.95;;;10.20;63.70;;;;;;5995617;23;114416;-81
2022/11/05 03:58:25;;;;;;;3.70;3.10;;;10.20;63.90;;;;;;5995666;23;114398;-80
2022/11/05 04:00:52;;;;;;;3.63;2.90;;;10.20;63.90;;;;;;5994284;23;115149;-81
2022/11/05 04:03:19;;;;;;;5.07;3.50;;;10.20;64.10;;;;;;5994731;23;114624;-80
2022/11/05 04:13:22;;;;;;;5.97;3.90;;;10.20;64.40;;;;;;5995319;23;114209;-81
2022/11/05 04:14:04;;;;;;;4.28;3.35;;;10.20;64.60;;;;;;5995904;23;114554;-81
2022/11/05 04:24:07;;;;;;;3.70;3.10;;;10.20;64.80;;;;;;5997089;23;114279;-81
2022/11/05 04:24:49;;;;;;;4.78;3.88;;;10.20;65.00;;;;;;5995475;23;115766;-82
2022/11/05 04:27:16;;;;;;;4.82;3.78;;;10.30;65.10;;;;;;5972185;23;114311;-81
2022/11/05 04:32:29;;;;;;;4.07;3.67;;;10.30;65.30;;;;;;5971032;23;114928;-80
2022/11/05 04:34:56;;;;;;;4.70;3.92;;;10.30;65.30;;;;;;5995984;23;115220;-80
2022/11/05 04:37:23;;;;;;;4.40;4.00;;;10.30;65.40;;;;;;5996671;23;114518;-80
2022/11/05 04:39:50;;;;;;;5.32;4.65;;;10.30;65.40;;;;;;5995775;23;114269;-81
2022/11/05 04:42:18;;;;;;;4.85;4.20;;;10.40;65.40;;;;;;5970960;23;114838;-80
2022/11/05 04:44:45;;;;;;;7.10;4.70;;;10.40;65.60;;;;;;5994420;23;114195;-80
2022/11/05 04:47:12;;;;;;;7.95;4.78;;;10.40;65.60;;;;;;5995546;23;114569;-81
2022/11/05 04:49:39;;;;;;;7.65;4.85;;;10.40;65.60;;;;;;5996889;23;114387;-80
2022/11/05 04:52:06;;;;;;;6.25;5.43;;;10.40;65.90;;;;;;5994447;23;114306;-80
2022/11/05 04:54:33;;;;;;;6.07;5.43;;;10.30;66.10;;;;;;5994756;23;114813;-80
2022/11/05 04:57:00;;;;;;;6.05;5.45;;;10.30;66.30;;;;;;5994928;23;114471;-80
2022/11/05 04:59:27;;;;;;;6.63;5.97;;;10.30;66.40;;;;;;5996727;23;114319;-81
2022/11/05 05:01:54;;;;;;;6.15;5.55;;;10.30;66.40;;;;;;5995449;23;114940;-81
2022/11/05 05:04:21;;;;;;;6.75;6.07;;;10.30;66.60;;;;;;5994367;23;114637;-81
2022/11/05 05:06:48;;;;;;;6.95;5.95;;;10.30;66.70;;;;;;5995738;23;114368;-80
2022/11/05 05:09:15;;;;;;;7.07;6.38;;;10.30;66.90;;;;;;5996900;23;114198;-80
2022/11/05 05:11:42;;;;;;;7.25;5.80;;;10.30;66.90;;;;;;5994304;23;115191;-82
2022/11/05 05:14:09;;;;;;;8.10;7.28;;;10.20;67.00;;;;;;5994666;23;114676;-81
2022/11/05 05:16:36;;;;;;;9.60;6.80;;;10.20;67.20;;;;;;5996782;23;114369;-82
2022/11/05 05:19:03;;;;;;;7.43;6.70;;;10.20;67.40;;;;;;5997282;23;114149;-81
2022/11/05 05:21:41;;;;;;;6.88;6.25;;;10.20;67.40;;;;;;5995871;23;114804;-81
2022/11/05 05:24:12;;;;;;;8.18;7.07;;;10.20;67.50;;;;;;5995803;23;115129;-81
2022/11/05 05:26:42;;;;;;;7.55;6.72;;;10.20;67.80;;;;;;5970849;23;115058;-81
2022/11/05 05:29:09;;;;;;;6.72;5.93;;;10.20;67.70;;;;;;5971247;23;114183;-82
2022/11/05 05:31:36;;;;;;;7.00;6.30;;;10.20;67.80;;;;;;5994407;23;114823;-81
2022/11/05 05:34:04;;;;;;;8.88;6.82;;;10.20;68.20;;;;;;5993979;23;115102;-81
2022/11/05 05:36:31;;;;;;;7.93;6.35;;;10.20;68.10;;;;;;5995340;23;114386;-82
2022/11/05 05:38:58;;;;;;;7.70;6.97;;;10.20;68.20;;;;;;5995389;23;114169;-81
2022/11/05 05:41:25;;;;;;;7.47;6.78;;;10.20;68.40;;;;;;5995248;23;114871;-80
2022/11/05 05:43:52;;;;;;;8.10;7.28;;;10.20;68.20;;;;;;5995530;23;115219;-81
2022/11/05 05:46:19;;;;;;;7.57;6.78;;;10.20;68.30;;;;;;5996624;23;114369;-80
2022/11/05 05:48:50;;;;;;;8.50;7.70;;;10.20;68.50;;;;;;6005843;23;114290;-80
2022/11/05 05:51:17;;;;;;;9.23;8.07;;;10.20;68.70;;;;;;6002497;23;114814;-81
2022/11/05 05:53:44;;;;;;;8.88;7.22;;;10.20;68.80;;;;;;5971055;23;115308;-81
2022/11/05 05:56:13;;;;;;;8.57;7.18;;;10.20;68.90;;;;;;5995480;23;114541;-81
2022/11/05 05:58:41;;;;;;;8.95;8.00;;;10.20;69.20;;;;;;5995661;23;114251;-82
2022/11/05 06:01:11;;;;;;;8.35;7.40;;;10.20;69.10;;;;;;5994294;23;114772;-81
2022/11/05 06:03:45;;;;;;;9.18;7.50;;;10.20;69.20;;;;;;5995416;23;114773;-82
2022/11/05 06:06:12;;;;;;;7.90;7.13;;;10.20;69.10;;;;;;5972238;23;114413;-81
2022/11/05 06:08:40;;;;;;;7.85;7.00;;;10.20;69.30;;;;;;5995922;23;114200;-82
2022/11/05 06:11:07;;;;;;;8.70;6.88;;;10.20;69.20;;;;;;5994347;23;117020;-82
2022/11/05 06:13:35;;;;;;;6.95;6.15;;;10.20;69.10;;;;;;5970510;23;115125;-82
2022/11/05 06:16:06;;;;;;;7.20;6.30;;;10.20;69.30;;;;;;5994733;23;114482;-82
2022/11/05 06:18:33;;;;;;;6.28;5.60;;;10.20;69.20;;;;;;5995621;23;114254;-82
2022/11/05 06:21:01;;;;;;;6.95;6.20;;;10.20;69.30;;;;;;5994132;23;117240;-81
2022/11/05 06:23:30;;;;;;;7.10;6.18;;;10.20;69.40;;;;;;5994194;23;114623;-82
2022/11/05 06:26:02;;;;;;;6.55;5.57;;;10.20;69.30;;;;;;5995846;23;115137;-82
2022/11/05 06:28:29;;;;;;;7.60;6.70;;;10.10;69.40;;;;;;5995616;23;114184;-81
2022/11/05 06:30:56;;;;;;;6.47;5.78;;;10.10;69.50;;;;;;5970271;23;118169;-82
2022/11/05 06:33:24;;;;;;;8.20;5.93;;;10.10;69.80;;;;;;5994866;23;115161;-82
2022/11/05 06:35:51;;;;;;;8.68;6.28;;;10.10;69.70;;;;;;5996996;23;114293;-82
2022/11/05 06:38:18;;;;;;;6.30;4.85;;;10.10;69.50;;;;;;5947653;23;114257;-82
2022/11/05 06:40:45;;;;;;;5.88;4.65;;;10.00;69.50;;;;;;5992956;23;116878;-80
2022/11/05 06:43:12;;;;;;;5.63;4.70;;;10.10;69.40;;;;;;5993273;23;114689;-81
2022/11/05 06:45:40;;;;;;;7.68;5.40;;;10.10;69.40;;;;;;5996565;23;114153;-80
2022/11/05 06:48:07;;;;;;;4.93;4.22;;;10.00;69.30;;;;;;5994782;23;114246;-80
2022/11/05 06:50:34;;;;;;;7.82;4.40;;;10.00;69.30;;;;;;5993352;23;114949;-80
2022/11/05 06:53:02;;;;;;;5.85;4.78;;;10.00;69.40;;;;;;5946303;23;117497;-81
2022/11/05 06:55:30;;;;;;;8.48;6.35;;;9.90;69.70;;;;;;5971133;23;114442;-81
2022/11/05 06:57:57;;;;;;;7.78;5.95;;;9.90;69.80;;;;;;5995243;23;114251;-81
2022/11/05 07:00:25;;;;;;;6.60;5.30;;;9.90;69.60;;;;;;5969870;23;115582;-81
2022/11/05 07:02:54;;;;;;;8.52;7.15;;;9.90;69.80;;;;;;5993081;23;114662;-81
2022/11/05 07:05:21;;;;;;;8.90;7.20;;;9.90;69.70;;;;;;5995412;23;114077;-82
2022/11/05 07:07:50;;;;;;;8.65;7.72;;;9.90;69.90;;;;;;5994462;23;114406;-81
2022/11/05 07:10:17;;;;;;;9.25;6.75;;;9.90;69.90;;;;;;5994638;23;114868;-81
2022/11/05 07:12:44;;;;;;;6.95;6.18;;;9.90;69.80;;;;;;5994559;23;114615;-81
2022/11/05 07:15:11;;;;;;;9.05;6.32;;;9.90;69.90;;;;;;5995772;23;114346;-81
2022/11/05 07:17:39;;;;;;;7.45;6.18;;;9.90;69.80;;;;;;5994469;23;114163;-82
2022/11/05 07:20:06;;;;;;;9.10;5.88;;;9.90;69.90;;;;;;5993358;23;115009;-82
2022/11/05 07:22:34;;;;;;;7.22;6.00;;;9.90;70.10;;;;;;5994590;23;115112;-82
2022/11/05 07:25:01;;;;;;;7.85;6.47;;;10.00;70.10;;;;;;5996951;23;114361;-82
2022/11/05 07:27:28;;;;;;;8.30;6.00;;;10.00;69.70;;;;;;5970632;23;114303;-82
2022/11/05 07:29:55;;;;;;;8.02;6.18;;;10.10;69.80;;;;;;5969009;23;114921;-82
2022/11/05 07:32:25;;;;;;;7.43;5.80;;;10.10;69.80;;;;;;5993804;23;114581;-84
2022/11/05 07:34:52;;;;;;;9.43;7.35;;;10.10;69.80;;;;;;5994746;23;114623;-83
2022/11/05 07:37:19;;;;;;;8.25;5.35;;;10.20;69.50;;;;;;5995981;23;114464;-82
2022/11/05 07:39:46;;;;;;;6.22;4.88;;;10.20;69.60;;;;;;5970122;23;115224;-83
2022/11/05 07:42:13;;;;;;;7.65;5.22;;;10.20;69.60;;;;;;5940057;23;114745;-81
2022/11/05 07:44:40;;;;;;;7.50;4.78;;;10.20;69.20;;;;;;5942306;23;114506;-82
2022/11/05 07:47:10;;;;;;;7.35;4.30;;;10.20;69.10;;;;;;5941090;23;114374;-83
2022/11/05 07:49:37;;;;;;;4.70;4.18;;;10.20;68.80;;;;;;5941960;23;115810;-81
2022/11/05 07:52:04;;;;;;;5.30;4.15;;;10.20;68.80;;;;;;5966457;23;114659;-81
2022/11/05 07:54:31;;;;;;;5.40;4.22;;;10.20;68.80;;;;;;5967614;23;114333;-81
2022/11/05 07:56:58;;;;;;;5.47;4.22;;;10.10;68.70;;;;;;5968107;23;114316;-80
2022/11/05 07:59:25;;;;;;;7.28;4.45;;;10.10;68.70;;;;;;5918796;23;115934;-80
2022/11/05 08:01:53;;;;;;;5.93;4.18;;;10.20;68.70;;;;;;5967263;23;115119;-81
2022/11/05 08:04:20;;;;;;;5.80;4.20;;;10.20;68.60;;;;;;5969581;23;114343;-81
2022/11/05 08:06:47;;;;;;;5.90;4.10;;;10.10;68.50;;;;;;5967927;23;114438;-81
2022/11/05 08:09:14;;;;;;;8.07;4.25;;;10.10;68.40;;;;;;5941890;23;114906;-83
2022/11/05 08:11:41;;;;;;;6.93;5.18;;;10.10;69.00;;;;;;5941786;23;114738;-79
2022/11/05 08:14:08;;;;;;;7.55;4.55;;;10.10;69.30;;;;;;5942904;23;114434;-80
2022/11/05 08:16:35;;;;;;;10.02;5.20;;;10.10;69.50;;;;;;5943328;23;114425;-81
2022/11/05 08:19:03;;;;;;;8.23;4.97;;;10.10;69.20;;;;;;5939733;23;115100;-83
2022/11/05 08:21:30;;;;;;;6.85;4.32;;;10.10;68.70;;;;;;5967367;23;115441;-82
2022/11/05 08:23:58;;;;;;;5.10;4.50;;;10.10;68.90;;;;;;5966573;23;114156;-81
2022/11/05 08:26:25;;;;;;;8.68;4.30;;;10.00;68.70;;;;;;5968338;23;114317;-82
2022/11/05 08:28:52;;;;;;;6.50;4.25;;;10.00;68.70;;;;;;5944640;23;114104;-81
2022/11/05 08:31:19;;;;;;;6.57;4.13;;;9.90;68.90;;;;;;5941386;23;116680;-83
2022/11/05 08:33:46;;;;;;;7.68;3.67;;;9.90;68.80;;;;;;5942906;23;114256;-82
2022/11/05 08:36:16;;;;;;;10.40;4.43;;;10.00;68.90;;;;;;5968265;23;114579;-81
2022/11/05 08:38:44;;;;;;;5.97;3.85;;;10.00;68.80;;;;;;5918390;23;114918;-83
2022/11/05 08:41:11;;;;;;;6.32;4.03;;;9.90;68.70;;;;;;5966418;23;114514;-83
2022/11/05 08:43:38;;;;;;;7.57;4.55;;;9.90;68.80;;;;;;5964565;23;115503;-82
2022/11/05 08:46:08;;;;;;;6.78;4.65;;;9.90;68.90;;;;;;5967808;23;114168;-82
2022/11/05 08:48:35;;;;;;;7.05;4.75;;;9.90;69.00;;;;;;5941583;23;114840;-82
2022/11/05 08:51:02;;;;;;;8.88;4.88;;;9.90;69.20;;;;;;5966425;23;115201;-83
2022/11/05 08:53:29;;;;;;;7.43;5.18;;;9.90;69.30;;;;;;5966314;23;114784;-82
2022/11/05 08:55:59;;;;;;;7.88;6.07;;;10.00;69.20;;;;;;5966365;23;114535;-83
2022/11/05 08:58:26;;;;;;;7.68;5.25;;;10.00;69.10;;;;;;5964760;23;114973;-82
2022/11/05 09:00:53;;;;;;;7.05;5.10;;;10.00;69.20;;;;;;5941681;23;116956;-82
2022/11/05 09:03:27;;;;;;;9.45;5.68;;;10.00;69.30;;;;;;5967633;23;114402;-83
2022/11/05 09:05:54;;;;;;;8.23;5.93;;;10.00;69.20;;;;;;5942366;23;114458;-82
2022/11/05 09:08:22;;;;;;;9.15;5.20;;;10.00;69.10;;;;;;5966405;23;115253;-83
2022/11/05 09:10:49;;;;;;;9.57;6.50;;;10.00;69.30;;;;;;5941763;23;114783;-84
2022/11/05 09:13:16;;;;;;;8.27;6.60;;;10.00;69.20;;;;;;5967959;23;114174;-83
2022/11/05 09:15:49;;;;;;;10.52;6.85;;;10.10;69.30;;;;;;5968138;23;114227;-81
2022/11/05 09:18:17;;;;;;;8.45;6.20;;;10.10;69.30;;;;;;5942175;23;114956;-82
2022/11/05 09:20:44;;;;;;;9.93;7.60;;;10.10;69.20;;;;;;5942049;23;114763;-82
2022/11/05 09:23:13;;;;;;;8.43;7.40;;;10.10;69.10;;;;;;5967254;23;114134;-82
2022/11/05 09:25:41;;;;;;;10.13;7.20;;;10.10;69.10;;;;;;5943651;23;114416;-81
2022/11/05 09:28:17;;;;;;;8.15;6.28;;;10.20;69.20;;;;;;5918159;23;117058;-82
2022/11/05 09:30:48;;;;;;;8.45;6.60;;;10.20;69.10;;;;;;5965963;23;114665;-82
2022/11/05 09:33:18;;;;;;;8.18;5.20;;;10.10;69.00;;;;;;5941664;23;114641;-82
2022/11/05 09:35:46;;;;;;;8.98;6.30;;;10.20;69.20;;;;;;5967096;23;114129;-82
2022/11/05 09:38:13;;;;;;;8.32;6.40;;;10.20;69.20;;;;;;5966142;23;115480;-81
2022/11/05 09:40:55;;;;;;;10.27;7.20;;;10.20;69.20;;;;;;5966715;23;114205;-83
2022/11/05 09:43:25;;;;;;;8.38;6.82;;;10.20;69.20;;;;;;5943045;23;114578;-82
2022/11/05 09:45:59;;;;;;;8.98;7.13;;;10.20;69.10;;;;;;5967626;23;114226;-83
2022/11/05 09:48:27;;;;;;;8.68;7.18;;;10.20;69.00;;;;;;5941998;23;114807;-82
2022/11/05 09:50:55;;;;;;;9.23;7.05;;;10.20;69.10;;;;;;5942236;23;114605;-82
2022/11/05 09:53:22;;;;;;;9.75;7.78;;;10.20;69.10;;;;;;5942775;23;114197;-83
2022/11/05 09:55:54;;;;;;;11.82;8.27;;;10.20;69.20;;;;;;5966108;23;114190;-83
2022/11/05 09:58:42;;;;;;;9.90;8.15;;;10.20;68.90;;;;;;5940734;23;115577;-82
2022/11/05 10:01:16;;;;;;;9.07;7.07;;;10.20;69.00;;;;;;5942996;23;116985;-83
2022/11/05 10:03:45;;;;;;;11.75;7.22;;;10.20;69.40;;;;;;5943152;23;114062;-82
2022/11/05 10:06:17;;;;;;;13.98;7.95;;;10.10;69.30;;;;;;5943171;23;115701;-82
2022/11/05 10:08:45;;;;;;;9.18;7.35;;;10.20;69.40;;;;;;5941938;23;116319;-84
2022/11/05 10:11:22;;;;;;;9.80;7.45;;;10.20;69.30;;;;;;5967215;23;116303;-83
2022/11/05 10:13:56;;;;;;;9.55;7.43;;;10.10;69.80;;;;;;5946368;23;114119;-82
2022/11/05 10:16:34;;;;;;;10.90;7.78;;;10.10;69.70;;;;;;5945864;23;114641;-83
2022/11/05 10:19:05;;;;;;;12.15;8.30;;;10.20;69.80;;;;;;5967507;23;114877;-84
2022/11/05 10:21:32;;;;;;;10.57;8.43;;;10.20;69.80;;;;;;5917999;23;116021;-83
2022/11/05 10:24:20;;;;;;;12.27;9.02;;;10.20;69.70;;;;;;5946557;23;114088;-84
2022/11/05 10:26:49;;;;;;;11.05;9.27;;;10.20;69.80;;;;;;5967843;23;114109;-84
2022/11/05 10:29:28;;;;;;;10.95;9.68;;;10.20;69.80;;;;;;5942076;23;115468;-81
2022/11/05 10:31:56;;;;;;;14.10;9.40;;;10.20;69.90;;;;;;5942849;23;114202;-83
2022/11/05 10:34:26;;;;;;;11.07;9.20;;;10.20;69.90;;;;;;5919962;23;114624;-83
2022/11/05 10:36:53;;;;;;;10.85;8.43;;;10.20;70.10;;;;;;5918970;23;114839;-83
2022/11/05 10:39:20;;;;;;;10.50;8.70;;;10.10;70.20;;;;;;5941930;23;114915;-83
2022/11/05 10:42:19;;;;;;;11.70;8.73;;;10.10;70.20;;;;;;5940869;23;114734;-83
2022/11/05 10:45:06;;;;;;;9.23;7.93;;;10.20;70.30;;;;;;5942744;23;114338;-82
2022/11/05 10:47:55;;;;;;;10.02;8.63;;;10.20;70.60;;;;;;5967519;23;114242;-83
2022/11/05 10:50:24;;;;;;;11.88;9.05;;;10.20;70.50;;;;;;5874077;23;118394;-83
2022/11/05 10:52:54;;;;;;;11.68;9.00;;;10.20;70.60;;;;;;5942047;23;114682;-82
2022/11/05 10:55:27;;;;;;;13.65;9.68;;;10.20;70.60;;;;;;5941938;23;114419;-83
2022/11/05 10:57:55;;;;;;;15.07;10.15;;;10.20;70.60;;;;;;5966100;23;114266;-86
2022/11/05 11:00:24;;;;;;;12.93;10.02;;;10.20;70.60;;;;;;5918326;23;115552;-84
2022/11/05 11:02:56;;;;;;;13.80;9.73;;;10.20;70.60;;;;;;5941294;23;115818;-82
2022/11/05 11:05:32;;;;;;;13.65;11.98;;;10.20;70.70;;;;;;5941901;23;114326;-82
2022/11/05 11:08:11;;;;;;;14.45;11.73;;;10.20;70.70;;;;;;5967153;23;114675;-83
2022/11/05 11:10:49;;;;;;;14.05;11.95;;;10.20;70.70;;;;;;5962975;23;114463;-82
2022/11/05 11:13:25;;;;;;;15.55;13.70;;;10.20;70.80;;;;;;5940742;23;114513;-81
2022/11/05 11:15:52;;;;;;;15.18;12.70;;;10.20;70.90;;;;;;5941292;23;114549;-83
2022/11/05 11:18:29;;;;;;;16.25;13.50;;;10.10;70.90;;;;;;5967115;23;114433;-82
2022/11/05 11:21:18;;;;;;;17.80;15.02;;;10.20;71.10;;;;;;5942309;23;114173;-82
2022/11/05 11:23:54;;;;;;;17.97;15.00;;;10.20;71.00;;;;;;5917232;23;114619;-82
2022/11/05 11:26:26;;;;;;;18.52;14.25;;;10.20;71.40;;;;;;5965139;23;114416;-82
2022/11/05 11:28:56;;;;;;;18.85;14.07;;;10.20;71.20;;;;;;5967240;23;114090;-82
2022/11/05 11:31:24;;;;;;;19.52;15.45;;;10.20;71.20;;;;;;5940550;23;114933;-82
2022/11/05 11:33:59;;;;;;;22.80;17.38;;;10.20;71.20;;;;;;5941139;23;114653;-82
2022/11/05 11:36:43;;;;;;;21.45;15.38;;;10.20;71.30;;;;;;5941631;23;114558;-82
2022/11/05 11:39:16;;;;;;;16.80;14.50;;;10.20;71.30;;;;;;5944482;23;114403;-82
2022/11/05 11:41:44;;;;;;;;;;;10.20;71.20;;;;;;5941102;23;114801;-82
2022/11/05 11:44:17;;;;;;;18.27;15.15;;;10.10;70.60;;;;;;5941161;23;114480;-82
2022/11/05 11:46:51;;;;;;;23.20;17.25;;;10.10;71.50;;;;;;5942597;23;114381;-82
2022/11/05 11:49:40;;;;;;;19.75;15.45;;;10.20;71.60;;;;;;5942119;23;114605;-83
2022/11/05 11:52:14;;;;;;;18.27;15.13;;;10.10;71.40;;;;;;5965989;23;114853;-82
2022/11/05 11:54:41;;;;;;;17.23;15.43;;;10.00;71.90;;;;;;5941212;23;114724;-81
2022/11/05 11:57:27;;;;;;;18.10;15.05;;;10.00;71.80;;;;;;5941689;23;114364;-82
2022/11/05 11:59:55;;;;;;;17.17;15.07;;;10.10;71.80;;;;;;5918441;23;114420;-81
2022/11/05 12:02:58;;;;;;;16.88;15.05;;;10.00;71.70;;;;;;5943439;23;118333;-81
2022/11/05 12:05:42;;;;;;;17.58;15.43;;;10.00;71.80;;;;;;5939722;23;114671;-82
2022/11/05 12:08:35;;;;;;;18.83;15.10;;;9.90;72.20;;;;;;5967068;23;114456;-81
2022/11/05 12:11:14;;;;;;;19.58;16.02;;;9.90;72.00;;;;;;5944563;23;114196;-81
2022/11/05 12:14:09;;;;;;;22.75;17.58;;;9.90;72.10;;;;;;5942828;23;114980;-82
2022/11/05 12:16:51;;;;;;;20.70;17.47;;;9.80;72.10;;;;;;5944689;23;114626;-81
2022/11/05 12:19:42;;;;;;;23.45;18.73;;;9.80;72.00;;;;;;5941050;23;114388;-82
2022/11/05 12:22:31;;;;;;;20.67;17.27;;;9.70;72.00;;;;;;5942088;23;114596;-82
2022/11/05 12:25:08;;;;;;;25.20;20.42;;;9.70;72.40;;;;;;5945515;23;114838;-82
2022/11/05 12:27:51;;;;;;;24.40;20.23;;;9.80;72.50;;;;;;5967600;23;114837;-81
2022/11/05 12:30:19;;;;;;;26.25;19.52;;;9.70;72.40;;;;;;5942725;23;114946;-81
2022/11/05 12:33:08;;;;;;;24.75;20.50;;;9.70;72.30;;;;;;5966827;23;114169;-81
2022/11/05 12:35:42;;;;;;;30.13;22.17;;;9.80;72.20;;;;;;5917660;23;118490;-81
2022/11/05 12:38:51;;;;;;;23.42;19.20;;;9.80;72.20;;;;;;5943224;23;115535;-82
2022/11/05 12:41:41;;;;;;;18.85;15.95;;;9.80;72.10;;;;;;5942033;23;114417;-82
2022/11/05 12:44:13;;;;;;;18.35;14.82;;;9.80;72.10;;;;;;5966111;23;114420;-82
2022/11/05 12:46:47;;;;;;;25.95;19.83;;;9.80;72.10;;;;;;5940652;23;116942;-82
2022/11/05 12:49:43;;;;;;;23.83;20.27;;;9.80;72.20;;;;;;5942074;23;115026;-82
2022/11/05 12:52:41;;;;;;;22.75;17.73;;;9.90;72.00;;;;;;5944762;23;114463;-81
2022/11/05 12:55:12;;;;;;;21.05;17.52;;;9.90;72.10;;;;;;5945872;23;114295;-82
2022/11/05 12:57:43;;;;;;;20.83;16.88;;;9.80;72.10;;;;;;5942411;23;114507;-82
2022/11/05 13:00:21;;;;;;;18.85;16.77;;;9.80;72.00;;;;;;5942072;23;115244;-83
2022/11/05 13:02:53;;;;;;;20.92;16.95;;;9.80;72.10;;;;;;5941650;23;114515;-82
2022/11/05 13:05:20;;;;;;;19.48;16.00;;;9.90;72.00;;;;;;5967767;23;114365;-81
2022/11/05 13:08:03;;;;;;;19.17;15.30;;;9.90;72.00;;;;;;5966543;23;114898;-81
2022/11/05 13:10:41;;;;;;;19.15;14.90;;;9.90;71.80;;;;;;5941414;23;114682;-82
2022/11/05 13:13:33;;;;;;;18.05;15.02;;;9.90;71.80;;;;;;5918899;23;114266;-82
2022/11/05 13:16:23;;;;;;;18.90;14.02;;;10.00;71.90;;;;;;5955705;23;114417;-82
2022/11/05 13:18:59;;;;;;;17.02;13.93;;;9.90;72.00;;;;;;5917328;23;116659;-82
2022/11/05 13:21:27;;;;;;;17.05;12.82;;;9.90;72.00;;;;;;5919278;23;117644;-83
2022/11/05 13:24:14;;;;;;;17.02;14.15;;;9.80;71.90;;;;;;5947127;23;114572;-82
2022/11/05 13:26:41;;;;;;;17.10;12.90;;;9.90;71.90;;;;;;5948915;23;114379;-82
2022/11/05 13:29:25;;;;;;;16.38;14.32;;;9.80;71.80;;;;;;5967139;23;115499;-82
2022/11/05 13:31:56;;;;;;;19.17;15.43;;;9.90;71.80;;;;;;5942780;23;115156;-82
2022/11/05 13:34:23;;;;;;;22.95;17.58;;;9.80;71.80;;;;;;5945009;23;114381;-82
2022/11/05 13:39:57;;;;;;;15.77;13.27;;;9.90;72.00;;;;;;5946887;23;114882;-82
2022/11/05 13:42:52;;;;;;;17.00;13.02;;;10.00;72.00;;;;;;5944825;23;114304;-81